createdAt,value
2019-02-18T07:57:39.168Z,14.27
2019-02-18T08:00:10.841Z,14.11
2019-02-18T08:02:40.702Z,13.87
2019-02-18T08:05:10.381Z,13.78
2019-02-18T08:07:40.104Z,13.66
2019-02-18T08:10:12.430Z,13.44
2019-02-18T08:12:41.797Z,13.34
2019-02-18T08:15:11.796Z,13.02
2019-02-18T08:17:41.187Z,12.72
2019-02-18T08:20:11.020Z,12.43
2019-02-18T08:22:40.818Z,12.36
2019-02-18T08:25:10.541Z,12.33
2019-02-18T08:27:40.241Z,12.43
2019-02-18T08:30:13.571Z,12.51
2019-02-18T08:32:43.441Z,12.45
2019-02-18T08:35:13.134Z,12.55
2019-02-18T08:37:42.894Z,12.54
2019-02-18T08:40:21.692Z,12.56
2019-02-18T08:42:43.791Z,12.75
2019-02-18T08:45:14.143Z,13.01
2019-02-18T08:47:43.842Z,13.41
2019-02-18T08:50:13.560Z,13.99
2019-02-18T08:52:43.160Z,14.26
2019-02-18T08:55:13.550Z,14.69
2019-02-18T08:57:43.212Z,15.07
2019-02-18T09:00:15.492Z,15.32
2019-02-18T09:02:45.129Z,15.59
2019-02-18T09:05:15.052Z,16.05
2019-02-18T09:07:44.816Z,16.81
2019-02-18T09:10:14.576Z,17.70
2019-02-18T09:12:44.185Z,18.51
2019-02-18T09:15:14.450Z,18.12
2019-02-18T09:17:44.212Z,18.22
2019-02-18T09:20:14.165Z,18.68
2019-02-18T09:23:05.683Z,19.14
2019-02-18T09:25:43.555Z,19.64
2019-02-18T09:28:13.502Z,20.17
2019-02-18T09:30:45.468Z,21.13
2019-02-18T09:33:15.206Z,21.09
2019-02-18T09:35:44.758Z,21.43
2019-02-18T09:38:24.411Z,21.89
2019-02-18T09:40:49.398Z,22.72
2019-02-18T09:43:17.029Z,23.26
2019-02-18T09:45:46.576Z,23.29
2019-02-18T09:48:15.963Z,23.82
2019-02-18T09:50:45.717Z,24.42
2019-02-18T09:53:15.397Z,25.01
2019-02-18T09:55:45.034Z,25.44
2019-02-18T09:58:14.553Z,25.46
2019-02-18T10:00:43.979Z,25.50
2019-02-18T10:03:13.609Z,26.17
2019-02-18T10:05:43.334Z,26.51
2019-02-18T10:08:12.809Z,27.11
2019-02-18T10:10:42.421Z,27.66
2019-02-18T10:13:12.176Z,28.29
2019-02-18T10:15:41.965Z,27.72
2019-02-18T10:18:11.669Z,27.45
2019-02-18T10:20:41.194Z,26.91
2019-02-18T10:23:10.885Z,27.32
2019-02-18T10:25:40.536Z,28.20
2019-02-18T10:28:10.300Z,28.12
2019-02-18T10:30:39.873Z,28.44
2019-02-18T10:33:09.518Z,29.23
2019-02-18T10:35:39.065Z,29.93
2019-02-18T10:38:08.839Z,30.89
2019-02-18T10:40:38.425Z,31.79
2019-02-18T10:43:07.933Z,32.44
2019-02-18T10:45:37.417Z,33.03
2019-02-18T10:48:07.252Z,33.50
2019-02-18T10:50:36.818Z,34.26
2019-02-18T10:53:06.343Z,34.57
2019-02-18T10:55:35.993Z,35.30
2019-02-18T10:58:05.788Z,35.29
2019-02-18T11:00:35.285Z,36.19
2019-02-18T11:03:04.677Z,35.67
2019-02-18T11:05:34.409Z,34.87
2019-02-18T11:08:03.883Z,35.84
2019-02-18T11:10:33.500Z,36.49
2019-02-18T11:13:03.170Z,36.45
2019-02-18T11:15:32.989Z,36.55
2019-02-18T11:18:02.518Z,37.49
2019-02-18T11:20:32.391Z,38.14
2019-02-18T11:23:02.163Z,38.21
2019-02-18T11:25:31.613Z,38.50
2019-02-18T11:28:01.537Z,39.43
2019-02-18T11:30:31.378Z,40.08
2019-02-18T11:33:01.102Z,40.69
2019-02-18T11:35:30.687Z,40.35
2019-02-18T11:38:00.372Z,41.32
2019-02-18T11:40:32.123Z,41.06
2019-02-18T11:43:01.794Z,40.93
2019-02-18T11:45:31.163Z,40.66
2019-02-18T11:48:00.570Z,40.76
2019-02-18T11:50:30.130Z,40.97
2019-02-18T11:52:59.894Z,40.99
2019-02-18T11:55:29.873Z,40.99
2019-02-18T11:57:59.816Z,41.72
2019-02-18T12:00:29.319Z,42.04
2019-02-18T12:03:03.150Z,42.48
2019-02-18T12:05:30.721Z,42.66
2019-02-18T12:08:00.323Z,42.43
2019-02-18T12:10:29.732Z,41.69
2019-02-18T12:12:59.133Z,42.35
2019-02-18T12:15:28.748Z,42.48
2019-02-18T12:17:58.337Z,42.43
2019-02-18T12:20:27.782Z,42.06
2019-02-18T12:22:57.205Z,42.39
2019-02-18T12:25:27.245Z,42.64
2019-02-18T12:27:57.050Z,43.14
2019-02-18T12:30:26.749Z,42.95
2019-02-18T12:32:56.420Z,43.36
2019-02-18T12:35:31.015Z,42.51
2019-02-18T12:37:57.472Z,42.45
2019-02-18T12:40:27.290Z,42.00
2019-02-18T12:42:57.040Z,42.41
2019-02-18T12:45:26.681Z,42.45
2019-02-18T12:47:56.252Z,40.84
2019-02-18T12:50:26.114Z,40.87
2019-02-18T12:52:55.973Z,41.15
2019-02-18T12:55:25.746Z,40.91
2019-02-18T12:57:55.262Z,40.89
2019-02-18T13:00:24.828Z,40.25
2019-02-18T13:02:54.509Z,39.95
2019-02-18T13:05:24.187Z,39.77
2019-02-18T13:07:53.979Z,40.07
2019-02-18T13:10:23.835Z,39.74
2019-02-18T13:12:55.317Z,39.84
2019-02-18T13:15:24.722Z,39.84
2019-02-18T13:17:54.209Z,39.80
2019-02-18T13:20:23.919Z,39.40
2019-02-18T13:22:53.404Z,38.31
2019-02-18T13:25:22.965Z,36.85
2019-02-18T13:27:52.484Z,35.57
2019-02-18T13:30:22.019Z,33.76
2019-02-18T13:32:51.683Z,32.32
2019-02-18T13:35:21.610Z,31.30
2019-02-18T13:37:51.442Z,29.72
2019-02-18T13:40:21.160Z,28.84
2019-02-18T13:42:50.780Z,27.53
2019-02-18T13:45:20.413Z,26.71
2019-02-18T13:47:50.202Z,25.70
2019-02-18T13:50:19.896Z,25.07
2019-02-18T13:52:49.303Z,23.72
2019-02-18T13:55:19.058Z,23.28
2019-02-18T13:57:48.468Z,23.04
2019-02-18T14:00:20.048Z,22.48
2019-02-18T14:02:50.092Z,22.53
2019-02-18T14:05:20.082Z,22.16
2019-02-18T14:07:49.613Z,21.81
2019-02-18T14:10:20.221Z,21.31
2019-02-18T14:12:49.979Z,21.28
2019-02-18T14:15:19.850Z,20.62
2019-02-18T14:17:50.638Z,20.39
2019-02-18T14:20:20.520Z,20.11
2019-02-18T14:22:50.320Z,20.24
2019-02-18T14:25:20.298Z,20.20
2019-02-18T14:27:50.038Z,20.09
2019-02-18T14:30:19.754Z,19.64
2019-02-18T14:32:49.472Z,19.78
2019-02-18T14:35:19.116Z,19.54
2019-02-18T14:37:49.376Z,19.27
2019-02-18T14:40:20.356Z,19.30
2019-02-18T14:42:49.979Z,19.18
2019-02-18T14:45:19.979Z,18.80
2019-02-18T14:47:49.761Z,18.87
2019-02-18T14:50:19.814Z,18.78
2019-02-18T14:52:50.555Z,18.74
2019-02-18T14:55:20.452Z,18.60
2019-02-18T14:57:50.023Z,18.48
2019-02-18T15:00:21.526Z,18.28
2019-02-18T15:02:52.834Z,18.14
2019-02-18T15:05:22.711Z,18.23
2019-02-18T15:07:52.461Z,18.22
2019-02-18T15:10:22.149Z,18.04
2019-02-18T15:12:51.668Z,17.89
2019-02-18T15:15:21.167Z,17.82
2019-02-18T15:17:50.983Z,17.45
2019-02-18T15:20:21.263Z,17.35
2019-02-18T15:22:51.014Z,17.36
2019-02-18T15:25:20.709Z,17.36
2019-02-18T15:27:50.473Z,17.16
2019-02-18T15:30:20.048Z,17.24
2019-02-18T15:32:49.742Z,17.03
2019-02-18T15:35:19.762Z,16.73
2019-02-18T15:37:49.236Z,16.44
2019-02-18T15:40:18.928Z,16.23
2019-02-18T15:42:48.797Z,16.00
2019-02-18T15:45:18.492Z,15.84
2019-02-18T15:47:48.090Z,15.71
2019-02-18T15:50:18.045Z,15.56
2019-02-18T15:52:47.824Z,15.41
2019-02-18T15:55:17.521Z,15.23
2019-02-18T15:57:47.207Z,15.13
2019-02-18T16:00:19.210Z,14.95
2019-02-18T16:02:49.135Z,15.01
2019-02-18T16:05:18.600Z,14.95
2019-02-18T16:07:48.223Z,14.65
2019-02-18T16:10:18.062Z,14.56
2019-02-18T16:12:50.878Z,14.44
2019-02-18T16:15:19.025Z,14.28
2019-02-18T16:17:48.663Z,14.34
2019-02-18T16:20:18.426Z,14.17
2019-02-18T16:22:48.126Z,13.87
2019-02-18T16:25:19.292Z,13.62
2019-02-18T16:27:49.081Z,13.44
2019-02-18T16:30:19.014Z,13.27
2019-02-18T16:32:48.860Z,13.05
2019-02-18T16:35:18.275Z,12.87
2019-02-18T16:37:50.313Z,12.69
2019-02-18T16:40:19.791Z,12.50
2019-02-18T16:42:49.382Z,12.61
2019-02-18T16:45:18.943Z,12.50
2019-02-18T16:47:48.433Z,12.43
2019-02-18T16:50:17.999Z,12.40
2019-02-18T16:52:47.746Z,12.42
2019-02-18T16:55:17.542Z,12.32
2019-02-18T16:57:47.034Z,12.14
2019-02-18T17:00:28.692Z,12.07
2019-02-18T17:02:58.373Z,11.97
2019-02-18T17:05:27.919Z,11.83
2019-02-18T17:07:57.777Z,11.71
2019-02-18T17:10:27.736Z,11.58
2019-02-18T17:12:57.343Z,11.46
2019-02-18T17:15:27.613Z,11.43
2019-02-18T17:17:57.264Z,11.41
2019-02-18T17:20:31.366Z,11.35
2019-02-18T17:23:00.910Z,11.28
2019-02-18T17:25:30.765Z,11.18
2019-02-18T17:28:00.348Z,11.11
2019-02-18T17:30:30.587Z,11.12
2019-02-18T17:33:00.501Z,11.06
2019-02-18T17:35:30.442Z,10.95
2019-02-18T17:38:00.228Z,10.88
2019-02-18T17:40:29.851Z,10.78
2019-02-18T17:43:01.387Z,10.78
2019-02-18T17:45:32.815Z,10.76
2019-02-18T17:48:02.573Z,10.76
2019-02-18T17:50:33.205Z,10.73
2019-02-18T17:53:03.383Z,10.72
2019-02-18T17:55:33.394Z,10.77
2019-02-18T17:58:03.644Z,10.81
2019-02-18T18:00:34.997Z,10.79
2019-02-18T18:03:04.756Z,10.71
2019-02-18T18:05:34.623Z,10.63
2019-02-18T18:08:04.594Z,10.58
2019-02-18T18:10:34.171Z,10.62
2019-02-18T18:13:04.005Z,10.66
2019-02-18T18:15:33.866Z,10.62
2019-02-18T18:18:04.026Z,10.58
2019-02-18T18:20:35.880Z,10.48
2019-02-18T18:23:05.685Z,10.32
2019-02-18T18:25:35.431Z,10.22
2019-02-18T18:28:05.178Z,10.17
2019-02-18T18:30:34.895Z,10.06
2019-02-18T18:33:04.618Z,9.95
2019-02-18T18:35:34.712Z,9.83
2019-02-18T18:38:04.159Z,9.74
2019-02-18T18:40:34.133Z,9.73
2019-02-18T18:43:03.815Z,9.65
2019-02-18T18:45:33.241Z,9.58
2019-02-18T18:48:03.062Z,9.53
2019-02-18T18:50:32.831Z,9.43
2019-02-18T18:53:02.520Z,9.40
2019-02-18T18:55:31.910Z,9.36
2019-02-18T18:58:01.591Z,9.39
2019-02-18T19:00:31.438Z,9.30
2019-02-18T19:03:01.205Z,9.28
2019-02-18T19:05:30.930Z,9.29
2019-02-18T19:08:00.562Z,9.26
2019-02-18T19:10:30.395Z,9.20
2019-02-18T19:13:00.085Z,9.20
2019-02-18T19:15:30.649Z,9.25
2019-02-18T19:18:00.375Z,9.32
2019-02-18T19:20:30.052Z,9.42
2019-02-18T19:22:59.472Z,9.43
2019-02-18T19:25:29.698Z,9.44
2019-02-18T19:27:59.539Z,9.35
2019-02-18T19:30:29.982Z,9.42
2019-02-18T19:32:59.701Z,9.38
2019-02-18T19:35:37.160Z,9.48
2019-02-18T19:38:07.065Z,9.44
2019-02-18T19:40:36.748Z,9.44
2019-02-18T19:43:06.673Z,9.44
2019-02-18T19:45:36.459Z,9.44
2019-02-18T19:48:06.146Z,9.40
2019-02-18T19:50:36.288Z,9.21
2019-02-18T19:53:06.030Z,9.28
2019-02-18T19:55:35.829Z,9.18
2019-02-18T19:58:05.251Z,9.06
2019-02-18T20:00:35.002Z,8.93
2019-02-18T20:03:04.526Z,8.88
2019-02-18T20:05:33.909Z,8.82
2019-02-18T20:08:03.773Z,8.72
2019-02-18T20:10:33.761Z,8.55
2019-02-18T20:13:04.133Z,8.50
2019-02-18T20:15:33.891Z,8.51
2019-02-18T20:18:03.531Z,8.39
2019-02-18T20:20:33.308Z,8.45
2019-02-18T20:23:03.091Z,8.33
2019-02-18T20:25:32.904Z,8.27
2019-02-18T20:28:02.312Z,8.25
2019-02-18T20:30:32.851Z,8.26
2019-02-18T20:33:02.406Z,8.26
2019-02-18T20:35:32.037Z,8.15
2019-02-18T20:38:01.765Z,8.06
2019-02-18T20:40:31.561Z,8.01
2019-02-18T20:43:01.265Z,8.00
2019-02-18T20:45:31.292Z,8.02
2019-02-18T20:48:01.019Z,8.02
2019-02-18T20:50:30.705Z,8.01
2019-02-18T20:53:00.782Z,8.04
2019-02-18T20:55:30.286Z,8.03
2019-02-18T20:58:00.047Z,7.96
2019-02-18T21:00:29.647Z,7.98
2019-02-18T21:02:59.238Z,8.06
2019-02-18T21:05:28.735Z,8.04
2019-02-18T21:07:58.399Z,7.99
2019-02-18T21:10:27.832Z,7.93
2019-02-18T21:12:57.442Z,7.87
2019-02-18T21:15:27.235Z,7.82
2019-02-18T21:17:57.004Z,7.77
2019-02-18T21:20:26.574Z,7.78
2019-02-18T21:22:56.317Z,7.80
2019-02-18T21:25:25.808Z,7.78
2019-02-18T21:27:55.521Z,7.75
2019-02-18T21:30:24.913Z,7.73
2019-02-18T21:32:54.548Z,7.77
2019-02-18T21:35:24.400Z,7.75
2019-02-18T21:37:54.288Z,7.75
2019-02-18T21:40:23.734Z,7.68
2019-02-18T21:42:53.567Z,7.56
2019-02-18T21:45:23.371Z,7.58
2019-02-18T21:47:52.849Z,7.62
2019-02-18T21:50:22.686Z,7.57
2019-02-18T21:52:52.459Z,7.37
2019-02-18T21:55:22.324Z,7.42
2019-02-18T21:57:51.988Z,7.48
2019-02-18T22:00:22.295Z,7.41
2019-02-18T22:02:51.905Z,7.27
2019-02-18T22:05:21.636Z,7.19
2019-02-18T22:07:51.352Z,7.16
2019-02-18T22:10:21.154Z,7.25
2019-02-18T22:12:51.009Z,7.27
2019-02-18T22:15:20.693Z,7.23
2019-02-18T22:17:50.416Z,7.22
2019-02-18T22:20:20.872Z,7.25
2019-02-18T22:22:50.745Z,7.27
2019-02-18T22:25:20.356Z,7.28
2019-02-18T22:27:50.038Z,7.30
2019-02-18T22:30:19.651Z,7.21
2019-02-18T22:32:49.114Z,7.22
2019-02-18T22:35:18.816Z,7.21
2019-02-18T22:37:48.602Z,7.13
2019-02-18T22:40:17.986Z,7.10
2019-02-18T22:42:47.574Z,7.05
2019-02-18T22:45:17.335Z,6.92
2019-02-18T22:47:46.985Z,6.91
2019-02-18T22:50:16.734Z,6.88
2019-02-18T22:52:46.498Z,6.82
2019-02-18T22:55:15.992Z,6.82
2019-02-18T22:57:45.747Z,6.75
2019-02-18T23:00:43.625Z,6.79
2019-02-18T23:03:13.230Z,6.82
2019-02-18T23:05:43.102Z,6.72
2019-02-18T23:08:12.975Z,6.68
2019-02-18T23:10:42.669Z,6.70
2019-02-18T23:13:12.291Z,6.71
2019-02-18T23:15:42.201Z,6.70
2019-02-18T23:18:12.321Z,6.63
2019-02-18T23:20:41.794Z,6.58
2019-02-18T23:23:11.562Z,6.57
2019-02-18T23:25:40.936Z,6.57
2019-02-18T23:28:10.510Z,6.60
2019-02-18T23:30:40.560Z,6.68
2019-02-18T23:33:10.027Z,6.69
2019-02-18T23:35:39.855Z,6.68
2019-02-18T23:38:09.264Z,6.61
2019-02-18T23:40:38.942Z,6.57
2019-02-18T23:43:08.690Z,6.56
2019-02-18T23:45:38.269Z,6.59
2019-02-18T23:48:08.009Z,6.59
2019-02-18T23:50:37.764Z,6.53
2019-02-18T23:53:07.255Z,6.51
2019-02-18T23:55:36.789Z,6.52
2019-02-18T23:58:06.643Z,6.51
